Tessenderlo, Belgium
Current Conditions -  °F | °C
As of 3:07 AM on Tuesday 25 Nov 2014 (Local Time) from EBDT Reporting Station
Clear Clear  
Wind Chill: 34°   Ceiling: Unl
Heat Index: 34°   Visibility: 0.87mi
Dew Point: 34°   Wind: 3mph
Humidity: 100%   Direction: 40°NE
Pressure: 30.3"   Gusts: NA
Location:  51.07°N, 5.09°E
Report Text: EBDT 250207Z AUTO 04003KT 1400 NCD 01/01 Q1026 AMB
Loading
Personal Weather Stations






























Interactive Weather Map New forecast layout! Learn more

10-Day Weather Forecast

Advertisements
Track Severe Weather on mobile